Topeka, Illinois
Current Conditions -  °F | °C
As of 7:54 PM on Monday 24 Nov 2014 (Local Time) from KPIA Reporting Station
Overcast Overcast  
Wind Chill: 21°   Ceiling: 3500
Heat Index: 31°   Visibility: 10mi
Dew Point: 23°   Wind: 13mph
Humidity: 72%   Direction: 270°W
Pressure: 29.84"   Gusts: 21mph
Location:  40.33°N, 89.93°W
Report Text: KPIA 250154Z 27011G18KT 10SM FEW020 OVC035 M01/M05 A2984 RMK AO2 SLP113 T10061050
Loading
Personal Weather Stations






























Interactive Weather Map New forecast layout! Learn more

10-Day Weather Forecast

Advertisements
Track Severe Weather on mobile